Time;durP1;ratioP1;P1;durP2;ratioP2;P2;SDS_P1;SDS_P2;PMS_P1;PMS_P2;Temp;Humidity;BMP_temperature;BMP_pressure;BME280_temperature;BME280_humidity;BME280_pressure;Samples;Min_cycle;Max_cycle;Signal;HPM_P1;HPM_P2
2023/10/04 00:00:14;;;;;;;12.25;3.65;;;;;;;11.05;100.00;102435.88;6245468;23;20004;-78
2023/10/04 00:02:44;;;;;;;12.57;3.45;;;;;;;11.28;100.00;102485.84;6245483;23;20034;-80
2023/10/04 00:05:10;;;;;;;11.85;3.35;;;;;;;11.22;100.00;102479.19;6245975;23;20026;-80
2023/10/04 00:07:36;;;;;;;11.13;3.33;;;;;;;11.10;100.00;102464.13;6245905;23;20005;-78
2023/10/04 00:10:04;;;;;;;11.75;3.38;;;;;;;11.18;100.00;102483.59;6242806;23;20008;-81
2023/10/04 00:12:30;;;;;;;12.07;3.80;;;;;;;11.23;100.00;102480.84;6245783;23;20008;-80
2023/10/04 00:14:56;;;;;;;11.73;3.88;;;;;;;11.16;100.00;102462.13;6245404;23;20005;-82
2023/10/04 00:17:24;;;;;;;13.93;3.35;;;;;;;11.16;100.00;102462.13;6242587;23;20008;-78
2023/10/04 00:19:49;;;;;;;12.10;4.00;;;;;;;11.26;100.00;102462.63;6245491;23;20428;-78
2023/10/04 00:22:18;;;;;;;11.70;2.92;;;;;;;11.38;100.00;102484.56;6245245;23;20059;-78
2023/10/04 00:24:44;;;;;;;11.40;3.35;;;;;;;11.31;100.00;102486.56;6245157;23;20500;-78
2023/10/04 00:27:10;;;;;;;13.13;3.80;;;;;;;11.25;100.00;102488.53;6245603;23;20008;-79
2023/10/04 00:29:36;;;;;;;13.50;3.95;;;;;;;11.07;100.00;102466.84;6245362;23;20402;-78
2023/10/04 00:32:03;;;;;;;9.98;3.50;;;;;;;10.89;100.00;102445.94;6245232;23;20084;-78
2023/10/04 00:34:29;;;;;;;10.75;3.38;;;;;;;10.89;100.00;102456.28;6244959;23;20008;-78
2023/10/04 00:36:56;;;;;;;12.93;3.42;;;;;;;11.11;100.00;102491.66;6245361;23;20054;-78
2023/10/04 00:39:21;;;;;;;10.80;3.55;;;;;;;11.13;100.00;102489.88;6245236;23;20058;-78
2023/10/04 00:41:47;;;;;;;10.23;3.75;;;;;;;11.08;100.00;102490.03;6245622;23;20008;-78
2023/10/04 00:44:12;;;;;;;11.23;3.25;;;;;;;11.11;100.00;102492.53;6218830;23;20027;-78
2023/10/04 00:46:41;;;;;;;10.13;3.75;;;;;;;11.07;100.00;102493.53;6245044;23;20027;-79
2023/10/04 00:49:08;;;;;;;10.57;3.00;;;;;;;10.88;100.00;102469.28;6245188;23;20004;-78
2023/10/04 00:51:37;;;;;;;11.40;3.45;;;;;;;10.88;100.00;102482.19;6245219;23;20005;-77
2023/10/04 00:54:12;;;;;;;11.73;3.47;;;;;;;10.97;100.00;102494.78;6245305;23;20000;-80
2023/10/04 00:56:38;;;;;;;12.80;3.60;;;;;;;10.91;100.00;102493.28;6245067;23;20418;-77
2023/10/04 00:59:04;;;;;;;14.60;3.60;;;;;;;10.95;100.00;102493.16;6245479;23;20019;-78
2023/10/04 01:01:33;;;;;;;11.90;3.22;;;;;;;10.87;100.00;102475.34;6245221;23;20008;-78
2023/10/04 01:04:02;;;;;;;8.57;3.15;;;;;;;10.99;100.00;102497.28;6244984;23;20004;-79
2023/10/04 01:06:30;;;;;;;9.63;3.80;;;;;;;10.61;100.00;102451.31;6237275;22;20021;-77
2023/10/04 01:08:59;;;;;;;9.00;3.47;;;;;;;10.40;100.00;102409.94;6214858;23;20004;-82
2023/10/04 01:11:34;;;;;;;16.90;3.90;;;;;;;10.28;100.00;102393.16;6215256;23;20005;-78
2023/10/04 01:14:09;;;;;;;12.20;3.83;;;;;;;11.01;100.00;102511.88;6215358;23;20033;-79
2023/10/04 01:16:41;;;;;;;11.43;3.88;;;;;;;10.94;100.00;102506.97;6215199;23;20005;-80
2023/10/04 01:19:06;;;;;;;13.13;3.90;;;;;;;10.97;100.00;102518.03;6214719;23;20415;-78
2023/10/04 01:21:33;;;;;;;12.30;3.78;;;;;;;10.84;100.00;102493.56;6215129;23;20080;-78
2023/10/04 01:23:58;;;;;;;11.63;4.00;;;;;;;10.97;100.00;102514.63;6214618;23;20009;-78
2023/10/04 01:26:26;;;;;;;12.50;3.72;;;;;;;10.91;100.00;102510.50;6215107;23;20012;-78
2023/10/04 01:28:52;;;;;;;13.88;3.90;;;;;;;10.94;100.00;102523.34;6215067;23;20005;-78
2023/10/04 01:31:19;;;;;;;12.77;4.13;;;;;;;10.84;100.00;102493.56;6214539;23;20008;-77
2023/10/04 01:33:44;;;;;;;11.82;4.18;;;;;;;10.87;100.00;102506.38;6214811;23;20445;-79
2023/10/04 01:36:09;;;;;;;12.52;4.97;;;;;;;10.93;100.00;102506.16;6214926;23;20004;-77
2023/10/04 01:38:35;;;;;;;12.07;3.90;;;;;;;10.73;100.00;102469.88;6215151;23;20095;-77
2023/10/04 01:41:04;;;;;;;13.73;4.85;;;;;;;10.91;100.00;102493.28;6215251;23;20027;-77
2023/10/04 01:43:29;;;;;;;11.95;4.50;;;;;;;11.09;100.00;102519.31;6212754;23;20013;-78
2023/10/04 01:45:57;;;;;;;10.65;3.95;;;;;;;11.10;100.00;102521.84;6214912;23;20007;-80
2023/10/04 01:48:27;;;;;;;11.98;3.70;;;;;;;11.12;100.00;102532.16;6215921;23;20395;-79
2023/10/04 01:50:53;;;;;;;12.68;4.28;;;;;;;11.06;100.00;102522.88;6215287;23;20039;-77
2023/10/04 01:53:25;;;;;;;12.95;4.75;;;;;;;11.13;100.00;102531.25;6216433;23;20057;-77
2023/10/04 01:55:51;;;;;;;12.93;4.25;;;;;;;11.14;100.00;102527.75;6214433;23;20455;-77
2023/10/04 01:58:23;;;;;;;19.67;4.78;;;;;;;11.02;100.00;102503.22;6216338;23;20005;-76
2023/10/04 02:00:52;;;;;;;13.18;4.35;;;;;;;11.20;100.00;102530.09;6216803;23;20019;-77
2023/10/04 02:03:18;;;;;;;14.52;4.07;;;;;;;11.20;100.00;102522.31;6216335;23;20012;-79
2023/10/04 02:05:45;;;;;;;12.10;4.07;;;;;;;11.24;100.00;102521.31;6216465;23;20374;-78
2023/10/04 02:08:12;;;;;;;19.02;4.70;;;;;;;11.22;100.00;102519.72;6216413;23;20009;-78
2023/10/04 02:10:38;;;;;;;13.00;4.43;;;;;;;11.07;100.00;102492.69;6216443;23;20096;-77
2023/10/04 02:13:07;;;;;;;11.55;4.38;;;;;;;11.25;100.00;102517.00;6216155;23;20009;-77
2023/10/04 02:15:35;;;;;;;11.43;4.40;;;;;;;11.23;100.00;102519.66;6216209;23;20001;-78
2023/10/04 02:18:01;;;;;;;13.23;4.40;;;;;;;11.24;100.00;102523.06;6216214;23;20001;-77
2023/10/04 02:20:28;;;;;;;12.65;4.78;;;;;;;11.14;100.00;102504.47;6164304;23;20004;-77
2023/10/04 02:22:57;;;;;;;12.13;4.10;;;;;;;11.18;100.00;102511.19;6216505;23;20004;-77
2023/10/04 02:25:23;;;;;;;11.75;4.32;;;;;;;11.10;100.00;102497.72;6216058;23;20359;-78
2023/10/04 02:27:49;;;;;;;12.27;4.30;;;;;;;11.24;100.00;102513.56;6216636;23;20008;-78
2023/10/04 02:30:16;;;;;;;11.95;4.72;;;;;;;11.27;100.00;102515.19;6216332;23;20323;-77
2023/10/04 02:32:42;;;;;;;12.27;4.50;;;;;;;11.19;100.00;102494.78;6216188;23;20001;-81
2023/10/04 02:35:10;;;;;;;9.82;4.35;;;;;;;11.16;100.00;102485.41;6214103;23;20036;-78
2023/10/04 02:37:35;;;;;;;14.07;4.30;;;;;;;11.16;100.00;102494.91;6216040;23;20020;-77
2023/10/04 02:40:14;;;;;;;13.13;4.72;;;;;;;11.19;100.00;102498.22;6216023;23;20000;-77
2023/10/04 02:42:41;;;;;;;15.90;4.72;;;;;;;11.32;100.00;102523.63;6216151;23;20009;-77
2023/10/04 02:45:07;;;;;;;16.25;4.60;;;;;;;11.34;100.00;102526.97;6216357;23;20004;-77
2023/10/04 02:47:33;;;;;;;11.98;4.68;;;;;;;11.23;100.00;102508.47;6215954;23;20007;-77
2023/10/04 02:49:58;;;;;;;14.05;4.40;;;;;;;11.22;100.00;102515.38;6216146;23;20012;-80
2023/10/04 02:52:23;;;;;;;12.45;4.50;;;;;;;11.26;100.00;102532.44;6216205;23;20036;-80
2023/10/04 02:54:49;;;;;;;12.40;4.72;;;;;;;11.23;100.00;102523.97;6216147;23;20318;-79
2023/10/04 02:57:15;;;;;;;10.38;4.03;;;;;;;11.12;100.00;102512.31;6215983;23;20446;-77
2023/10/04 02:59:41;;;;;;;11.43;4.15;;;;;;;11.19;100.00;102529.25;6215576;23;20001;-77
2023/10/04 03:02:07;;;;;;;13.00;4.70;;;;;;;11.20;100.00;102524.91;6216094;23;20016;-77
2023/10/04 03:04:33;;;;;;;15.07;4.47;;;;;;;11.12;100.00;102522.66;6215817;23;20005;-80
2023/10/04 03:06:59;;;;;;;16.70;4.35;;;;;;;11.06;100.00;102520.28;6215685;23;20008;-77
2023/10/04 03:09:24;;;;;;;10.45;3.97;;;;;;;11.08;100.00;102536.56;6213842;23;20005;-77
2023/10/04 03:11:50;;;;;;;13.15;4.25;;;;;;;11.07;100.00;102537.47;6215271;23;20063;-78
2023/10/04 03:14:15;;;;;;;12.60;4.47;;;;;;;10.91;100.00;102526.88;6216178;23;20476;-77
2023/10/04 03:16:41;;;;;;;16.92;5.03;;;;;;;10.93;100.00;102542.34;6215822;23;20377;-78
2023/10/04 03:19:07;;;;;;;13.90;4.88;;;;;;;10.71;100.00;102531.06;6215784;23;20103;-78
2023/10/04 03:21:33;;;;;;;12.45;4.15;;;;;;;10.81;100.00;102555.69;6188860;23;20086;-76
2023/10/04 03:23:59;;;;;;;14.48;4.40;;;;;;;10.68;100.00;102538.94;6215913;23;20013;-77
2023/10/04 03:26:25;;;;;;;17.10;5.32;;;;;;;10.49;100.00;102516.34;6215214;23;20036;-79
2023/10/04 03:28:50;;;;;;;14.40;5.15;;;;;;;10.51;100.00;102524.03;6215872;23;20047;-76
2023/10/04 03:31:16;;;;;;;12.00;4.80;;;;;;;10.66;100.00;102557.09;6216023;23;20072;-77
2023/10/04 03:33:45;;;;;;;12.30;5.10;;;;;;;10.44;100.00;102528.59;6215549;23;20327;-77
2023/10/04 03:36:15;;;;;;;15.52;5.13;;;;;;;10.48;100.00;102540.50;6215613;23;20005;-77
2023/10/04 03:38:41;;;;;;;16.77;5.45;;;;;;;10.51;100.00;102542.97;6215474;23;20029;-77
2023/10/04 03:41:06;;;;;;;14.98;5.07;;;;;;;10.50;100.00;102546.44;6215120;23;20100;-79
2023/10/04 03:43:33;;;;;;;13.48;4.80;;;;;;;10.47;100.00;102540.56;6215691;23;20079;-81
2023/10/04 03:46:07;;;;;;;13.73;4.75;;;;;;;10.44;100.00;102538.09;6215685;23;20028;-79
2023/10/04 03:48:37;;;;;;;15.57;5.28;;;;;;;10.41;100.00;102533.00;6215117;23;20418;-79
2023/10/04 03:51:03;;;;;;;13.02;5.13;;;;;;;10.20;100.00;102513.91;6213592;23;20020;-80
2023/10/04 03:53:29;;;;;;;13.20;4.80;;;;;;;10.33;100.00;102548.78;6215623;23;20035;-80
2023/10/04 03:55:54;;;;;;;14.40;5.20;;;;;;;10.24;100.00;102526.72;6215447;23;20427;-78
2023/10/04 03:58:26;;;;;;;14.57;5.65;;;;;;;10.01;100.00;102496.47;6215196;23;20004;-81
2023/10/04 04:01:01;;;;;;;13.98;5.10;;;;;;;10.23;100.00;102537.94;6215150;23;20005;-79
2023/10/04 04:03:26;;;;;;;12.10;5.00;;;;;;;9.32;100.00;102402.47;6213440;23;20461;-79
2023/10/04 04:06:15;;;;;;;14.45;5.78;;;;;;;9.03;100.00;102369.91;6220239;22;20013;-78
2023/10/04 04:08:46;;;;;;;14.48;5.00;;;;;;;9.65;100.00;102477.06;6123236;23;20017;-78
2023/10/04 04:11:26;;;;;;;14.30;5.13;;;;;;;10.04;100.00;102545.41;6123448;23;20052;-78
2023/10/04 04:13:58;;;;;;;17.17;5.15;;;;;;;8.98;100.00;102378.69;6199888;22;20450;-77
2023/10/04 04:16:24;;;;;;;17.15;5.50;;;;;;;9.16;100.00;102403.88;6215225;23;20016;-77
2023/10/04 04:19:07;;;;;;;15.77;5.45;;;;;;;9.24;100.00;102419.06;6214504;23;20027;-77
2023/10/04 04:21:39;;;;;;;18.27;6.20;;;;;;;9.88;100.00;102536.47;6215406;23;20039;-78
2023/10/04 04:24:04;;;;;;;16.98;5.70;;;;;;;9.77;100.00;102510.19;6215179;23;20058;-79
2023/10/04 04:26:29;;;;;;;15.40;5.57;;;;;;;9.92;100.00;102550.13;6214842;23;20414;-76
2023/10/04 04:28:55;;;;;;;14.38;5.72;;;;;;;9.75;100.00;102518.00;6214341;23;19996;-79
2023/10/04 04:31:20;;;;;;;17.38;6.43;;;;;;;9.87;100.00;102539.97;6215345;23;20005;-78
2023/10/04 04:33:46;;;;;;;12.75;5.05;;;;;;;9.84;100.00;102537.50;6214896;23;20074;-79
2023/10/04 04:36:34;;;;;;;14.50;5.10;;;;;;;9.55;100.00;102491.16;6214780;23;20080;-77
2023/10/04 04:39:06;;;;;;;13.82;5.43;;;;;;;9.12;100.00;102428.03;6214079;22;20019;-76
2023/10/04 04:41:49;;;;;;;13.48;5.30;;;;;;;8.66;100.00;102351.34;6184805;23;20331;-76
2023/10/04 04:44:20;;;;;;;16.80;6.07;;;;;;;9.73;100.00;102534.38;6184905;23;20001;-77
2023/10/04 04:46:47;;;;;;;15.50;5.82;;;;;;;9.73;100.00;102529.22;6185174;23;20076;-78
2023/10/04 04:49:13;;;;;;;17.33;6.07;;;;;;;9.71;100.00;102531.03;6184833;23;20087;-77
2023/10/04 04:51:39;;;;;;;20.52;5.85;;;;;;;9.69;100.00;102527.66;6184533;23;20001;-77
2023/10/04 04:54:06;;;;;;;12.98;5.75;;;;;;;9.64;100.00;102524.41;6185224;23;20005;-77
2023/10/04 04:56:31;;;;;;;13.93;5.55;;;;;;;9.44;100.00;102491.50;6185247;23;20033;-77
2023/10/04 04:58:57;;;;;;;17.05;6.63;;;;;;;9.60;100.00;102515.06;6185151;23;20068;-77
2023/10/04 05:01:23;;;;;;;16.60;6.20;;;;;;;9.53;100.00;102509.22;6185332;23;20005;-78
2023/10/04 05:03:50;;;;;;;16.23;6.18;;;;;;;9.61;100.00;102529.63;6184717;23;20420;-79
2023/10/04 05:06:22;;;;;;;17.98;5.93;;;;;;;9.61;100.00;102550.25;6185216;23;20075;-78
2023/10/04 05:08:49;;;;;;;18.13;5.78;;;;;;;9.49;100.00;102536.88;6185219;23;20005;-77
2023/10/04 05:11:14;;;;;;;17.67;6.35;;;;;;;9.57;100.00;102546.09;6185312;23;20007;-78
2023/10/04 05:13:39;;;;;;;14.98;5.65;;;;;;;9.55;100.00;102551.31;6184987;23;20419;-78
2023/10/04 05:16:05;;;;;;;16.80;5.82;;;;;;;9.33;100.00;102533.06;6184909;23;20351;-77
2023/10/04 05:18:31;;;;;;;14.70;6.13;;;;;;;9.56;100.00;102583.94;6185046;23;20081;-76
2023/10/04 05:20:57;;;;;;;19.98;6.35;;;;;;;9.56;100.00;102591.69;6185285;23;20040;-80
2023/10/04 05:23:25;;;;;;;17.17;6.28;;;;;;;9.55;100.00;102587.41;6186828;23;20004;-77
2023/10/04 05:25:52;;;;;;;18.73;5.95;;;;;;;9.53;100.00;102571.13;6186529;23;20001;-78
2023/10/04 05:28:18;;;;;;;17.33;6.60;;;;;;;9.45;100.00;102568.81;6186585;23;20012;-77
2023/10/04 05:30:45;;;;;;;17.75;6.15;;;;;;;9.41;100.00;102562.03;6186639;23;19997;-77
2023/10/04 05:33:15;;;;;;;16.08;5.68;;;;;;;9.25;100.00;102536.78;6186521;23;20371;-77
2023/10/04 05:35:43;;;;;;;17.92;6.63;;;;;;;9.42;100.00;102565.47;6186647;23;20008;-78
2023/10/04 05:38:11;;;;;;;15.27;6.07;;;;;;;9.36;100.00;102561.34;6186581;23;20005;-77
2023/10/04 05:40:38;;;;;;;20.27;5.63;;;;;;;9.42;100.00;102586.94;6186311;23;20083;-77
2023/10/04 05:43:05;;;;;;;14.10;6.05;;;;;;;9.22;100.00;102553.16;6186706;23;20013;-78
2023/10/04 05:45:31;;;;;;;18.52;5.75;;;;;;;9.20;100.00;102550.63;6186506;23;20327;-77
2023/10/04 05:47:57;;;;;;;15.65;5.90;;;;;;;9.41;100.00;102594.72;6186247;23;20004;-77
2023/10/04 05:50:23;;;;;;;16.17;6.50;;;;;;;9.41;100.00;102600.72;6160093;23;20371;-76
2023/10/04 05:52:49;;;;;;;17.25;5.88;;;;;;;9.42;100.00;102599.81;6186578;23;20076;-76
2023/10/04 05:55:16;;;;;;;17.98;6.05;;;;;;;9.41;100.00;102603.28;6186687;23;20001;-79
2023/10/04 05:57:45;;;;;;;23.73;5.88;;;;;;;9.45;100.00;102612.66;6186269;23;20060;-78
2023/10/04 06:03:12;;;;;;;21.27;6.15;;;;;;;8.42;100.00;102436.13;6218625;22;20028;-76
2023/10/04 06:06:04;;;;;;;21.67;6.00;;;;;;;8.58;100.00;102462.31;6215949;23;20008;-78
2023/10/04 06:08:55;;;;;;;15.27;5.80;;;;;;;9.42;100.00;102598.97;6065770;23;20089;-78
2023/10/04 06:11:47;;;;;;;17.48;6.75;;;;;;;8.44;100.00;102428.38;5952705;24;20446;-79
2023/10/04 06:14:43;;;;;;;16.70;6.00;;;;;;;9.57;100.00;102616.59;5953129;24;20317;-76
2023/10/04 06:17:18;;;;;;;13.82;5.35;;;;;;;8.96;100.00;102520.44;5953600;24;20017;-81
2023/10/04 06:19:54;;;;;;;16.23;5.95;;;;;;;9.09;100.00;102536.38;5953965;24;20085;-79
2023/10/04 06:22:22;;;;;;;15.95;5.60;;;;;;;8.58;100.00;102442.53;5952314;24;20086;-78
2023/10/04 06:25:07;;;;;;;14.75;5.45;;;;;;;8.65;100.00;102461.22;5930294;24;20444;-78
2023/10/04 06:27:33;;;;;;;14.73;5.63;;;;;;;8.73;100.00;102458.44;5953158;24;20435;-79
2023/10/04 06:30:04;;;;;;;15.68;5.53;;;;;;;9.00;100.00;102487.69;5953085;24;20012;-79
2023/10/04 06:32:29;;;;;;;19.48;6.10;;;;;;;9.83;100.00;102623.50;5952748;24;20013;-79
2023/10/04 06:34:55;;;;;;;15.35;5.65;;;;;;;9.91;100.00;102631.84;5953179;24;20443;-80
2023/10/04 06:37:20;;;;;;;14.55;5.40;;;;;;;9.64;100.00;102583.72;5952874;24;20008;-79
2023/10/04 06:39:45;;;;;;;13.77;5.60;;;;;;;10.05;100.00;102639.19;5953043;24;20008;-80
2023/10/04 06:42:11;;;;;;;12.27;5.40;;;;;;;9.86;100.00;102600.22;5930184;24;20458;-81
2023/10/04 06:44:39;;;;;;;15.10;6.75;;;;;;;10.17;100.00;102638.78;5948047;23;20420;-80
2023/10/04 06:47:05;;;;;;;13.90;6.20;;;;;;;9.98;100.00;102607.56;6094580;23;20010;-81
2023/10/04 06:49:30;;;;;;;17.77;6.10;;;;;;;10.28;100.00;102647.06;6189151;23;20001;-80
2023/10/04 06:51:57;;;;;;;15.40;5.45;;;;;;;10.07;100.00;102607.25;6215983;23;20005;-81
2023/10/04 06:54:22;;;;;;;18.73;5.72;;;;;;;10.40;100.00;102644.97;6216081;23;20492;-81
2023/10/04 06:56:49;;;;;;;14.15;5.45;;;;;;;10.45;100.00;102643.94;6216052;23;20000;-79
2023/10/04 06:59:17;;;;;;;13.85;5.63;;;;;;;10.51;100.00;102637.69;6215686;23;20019;-80
2023/10/04 07:01:45;;;;;;;13.60;5.70;;;;;;;10.36;100.00;102609.81;6215751;23;20012;-81
2023/10/04 07:04:11;;;;;;;13.05;5.45;;;;;;;10.68;100.00;102650.03;6216073;23;20013;-81
2023/10/04 07:06:37;;;;;;;15.60;5.55;;;;;;;10.53;100.00;102615.25;6189282;23;20011;-81
2023/10/04 07:09:04;;;;;;;16.75;5.05;;;;;;;10.58;100.00;102621.09;6215428;23;20075;-80
2023/10/04 07:11:29;;;;;;;15.85;5.95;;;;;;;10.68;100.00;102625.03;6215521;23;20009;-79
2023/10/04 07:13:55;;;;;;;15.40;5.13;;;;;;;10.99;100.00;102661.00;6216233;23;20289;-80
2023/10/04 07:16:20;;;;;;;11.35;4.38;;;;;;;10.71;100.00;102603.41;6216185;23;20388;-78
2023/10/04 07:18:46;;;;;;;13.43;5.25;;;;;;;10.99;100.00;102626.53;6216320;23;20040;-83
2023/10/04 07:21:12;;;;;;;14.00;4.75;;;;;;;10.88;100.00;102589.00;6215749;23;20001;-77
2023/10/04 07:23:43;;;;;;;15.43;5.18;;;;;;;11.37;100.00;102659.59;6214405;23;20005;-79
2023/10/04 07:26:09;;;;;;;14.98;4.50;;;;;;;10.66;100.00;102533.00;6216344;22;20057;-78
2023/10/04 07:28:41;;;;;;;16.13;5.05;;;;;;;10.99;100.00;102573.09;6215664;23;20001;-79
2023/10/04 07:32:01;;;;;;;14.25;4.85;;;;;;;10.43;100.00;102462.34;6214355;23;20104;-80
2023/10/04 07:34:29;;;;;;;15.07;4.82;;;;;;;10.62;100.00;102471.13;6215385;23;20411;-79
2023/10/04 07:37:04;;;;;;;15.43;5.30;;;;;;;11.55;100.00;102605.50;6215902;22;20016;-79
2023/10/04 07:40:09;;;;;;;17.48;4.65;;;;;;;11.22;100.00;102545.56;6215808;23;20004;-78
2023/10/04 07:42:38;;;;;;;13.65;4.80;;;;;;;11.33;100.00;102533.91;6205763;23;20402;-80
2023/10/04 07:45:49;;;;;;;14.60;5.00;;;;;;;11.32;100.00;102536.56;6215539;23;20019;-79
2023/10/04 07:48:29;;;;;;;12.73;4.82;;;;;;;11.21;100.00;102503.34;6124306;23;20006;-78
2023/10/04 07:51:22;;;;;;;13.73;4.90;;;;;;;12.33;100.00;102680.94;6205952;22;20024;-75
2023/10/04 07:53:52;;;;;;;15.32;4.60;;;;;;;11.37;100.00;102516.50;6215634;23;20423;-80
2023/10/04 07:56:35;;;;;;;12.35;4.78;;;;;;;11.45;100.00;102527.41;6215146;23;20015;-78
2023/10/04 08:02:03;;;;;;;;;;;;;;;12.79;100.00;102698.03;6123158;23;20020;-79
2023/10/04 08:04:48;;;;;;;13.35;4.47;;;;;;;12.46;100.00;102621.69;6098729;23;19920;-78
2023/10/04 08:07:26;;;;;;;10.90;4.57;;;;;;;12.47;100.00;102603.47;6122283;23;20010;-77
2023/10/04 08:09:52;;;;;;;10.57;4.53;;;;;;;12.53;100.00;102599.78;6123252;23;20038;-78
2023/10/04 08:12:19;;;;;;;12.65;5.30;;;;;;;12.78;100.00;102630.66;6123286;23;20009;-79
2023/10/04 08:15:07;;;;;;;12.25;4.47;;;;;;;12.98;100.00;102655.72;6123301;23;20010;-78
2023/10/04 08:18:16;;;;;;;14.35;4.68;;;;;;;12.76;100.00;102606.56;6123252;23;20006;-74
2023/10/04 08:31:36;;;;;;;;;;;;;;;;;;;;;
2023/10/04 08:34:15;;;;;;;13.85;5.00;;;;;;;12.68;100.00;102562.81;6214470;23;20087;-77
2023/10/04 08:36:42;;;;;;;12.77;4.15;;;;;;;12.94;100.00;102600.56;6215054;23;20342;-76
2023/10/04 08:39:26;;;;;;;14.73;4.45;;;;;;;12.81;100.00;102569.16;6211932;23;20012;-76
2023/10/04 08:42:06;;;;;;;12.27;3.97;;;;;;;12.90;100.00;102571.34;6214894;23;20104;-78
2023/10/04 08:44:45;;;;;;;11.50;4.47;;;;;;;13.85;100.00;102734.84;6187500;23;20378;-76
2023/10/04 08:47:23;;;;;;;12.57;4.53;;;;;;;13.72;100.00;102711.22;6213678;23;20020;-78
2023/10/04 08:49:55;;;;;;;12.70;4.28;;;;;;;13.81;100.00;102716.00;6215156;23;20000;-77
2023/10/04 08:52:47;;;;;;;11.75;4.05;;;;;;;13.97;100.00;102716.97;6214266;23;20087;-77
2023/10/04 08:55:20;;;;;;;11.48;4.10;;;;;;;13.81;100.00;102697.81;6122594;23;20442;-78
2023/10/04 08:57:46;;;;;;;12.02;4.20;;;;;;;14.03;100.00;102718.41;6124858;23;20037;-78
2023/10/04 09:00:28;;;;;;;11.40;4.22;;;;;;;13.92;100.00;102694.72;6125168;23;20417;-79
2023/10/04 09:03:04;;;;;;;10.32;4.03;;;;;;;14.29;100.00;102719.78;6125173;23;20018;-79
2023/10/04 09:05:46;;;;;;;11.35;4.03;;;;;;;14.11;100.00;102685.13;6125275;23;20008;-78
2023/10/04 09:08:22;;;;;;;12.68;4.43;;;;;;;14.42;100.00;102728.66;6124778;23;20032;-77
2023/10/04 09:10:53;;;;;;;13.45;3.92;;;;;;;14.24;100.00;102690.56;6124904;23;20002;-77
2023/10/04 09:13:22;;;;;;;13.77;4.50;;;;;;;14.37;100.00;102701.22;6124847;23;20014;-78
2023/10/04 09:15:51;;;;;;;12.75;4.78;;;;;;;14.48;100.00;102699.81;6124793;23;20021;-79
2023/10/04 09:18:30;;;;;;;10.63;4.55;;;;;;;14.18;100.00;102642.34;6124570;23;20009;-78
2023/10/04 09:21:16;;;;;;;16.88;4.40;;;;;;;14.76;100.00;102719.22;6124896;23;20006;-78
2023/10/04 09:23:43;;;;;;;11.77;4.57;;;;;;;14.77;100.00;102720.91;6123915;23;20392;-78
2023/10/04 09:26:39;;;;;;;15.43;4.28;;;;;;;14.91;100.00;102714.06;6124842;23;20006;-79
2023/10/04 09:29:05;;;;;;;10.95;4.22;;;;;;;14.55;100.00;102641.41;6014183;23;20039;-77
2023/10/04 09:31:45;;;;;;;13.35;4.82;;;;;;;15.08;100.00;102702.81;6063867;23;20096;-79
2023/10/04 09:34:14;;;;;;;17.83;4.65;;;;;;;15.15;100.00;102698.13;6124703;23;20077;-79
2023/10/04 09:36:40;;;;;;;13.25;4.75;;;;;;;15.06;100.00;102667.38;6124868;23;20006;-77
2023/10/04 09:39:23;;;;;;;12.88;4.25;;;;;;;15.16;100.00;102695.44;6099847;23;20006;-80
2023/10/04 09:41:49;;;;;;;14.98;4.78;;;;;;;15.06;100.00;102691.63;6124679;23;20433;-77
2023/10/04 09:44:23;;;;;;;13.75;4.30;;;;;;;15.13;100.00;102705.16;6124635;23;20332;-78
2023/10/04 09:47:00;;;;;;;14.88;4.72;;;;;;;15.15;100.00;102709.38;6124340;23;20034;-78
2023/10/04 09:49:31;;;;;;;15.05;5.47;;;;;;;15.05;100.00;102676.94;6124584;23;20037;-77
2023/10/04 09:51:57;;;;;;;12.25;4.55;;;;;;;15.24;100.00;102695.03;6124159;23;20006;-77
2023/10/04 09:54:23;;;;;;;11.30;3.97;;;;;;;15.28;100.00;102706.13;6124359;23;20017;-76
2023/10/04 09:56:51;;;;;;;14.10;4.65;;;;;;;15.37;100.00;102701.28;6124411;23;20037;-74
2023/10/04 09:59:29;;;;;;;12.45;4.60;;;;;;;15.16;100.00;102642.56;6175917;22;20020;-78
2023/10/04 10:02:22;;;;;;;;;;;;;;;;;;;;;
2023/10/04 10:04:50;;;;;;;12.38;4.72;;;;;;;15.57;100.00;102700.19;6188654;23;20087;-77
2023/10/04 10:07:41;;;;;;;12.05;5.28;;;;;;;15.69;100.00;102711.75;6216135;23;20080;-78
2023/10/04 10:10:18;;;;;;;14.93;5.75;;;;;;;15.37;100.00;102659.63;6214475;23;20084;-78
2023/10/04 10:13:04;;;;;;;15.70;5.88;;;;;;;15.00;100.00;102598.28;6215908;22;20055;-76
2023/10/04 10:15:48;;;;;;;12.15;5.13;;;;;;;15.34;100.00;102658.91;6216016;23;20001;-78
2023/10/04 10:18:31;;;;;;;13.95;5.95;;;;;;;14.93;100.00;102570.91;6167682;23;20009;-77
2023/10/04 10:21:13;;;;;;;12.15;5.03;;;;;;;14.99;100.00;102573.19;6215839;23;20004;-78
2023/10/04 10:23:57;;;;;;;11.93;4.30;;;;;;;15.94;100.00;102690.41;6216081;23;20091;-79
2023/10/04 10:26:23;;;;;;;13.32;4.40;;;;;;;16.18;100.00;102725.50;6216370;23;20427;-77
2023/10/04 10:29:04;;;;;;;13.27;4.88;;;;;;;16.19;100.00;102711.53;6216104;23;20008;-78
2023/10/04 10:31:30;;;;;;;12.95;4.65;;;;;;;15.98;100.00;102677.09;6215854;23;20000;-77
2023/10/04 10:33:56;;;;;;;12.55;4.70;;;;;;;15.72;100.00;102652.50;6216293;23;20096;-79
2023/10/04 10:36:33;;;;;;;12.35;4.90;;;;;;;15.70;100.00;102671.75;6216028;23;20011;-77
2023/10/04 10:38:59;;;;;;;11.13;4.88;;;;;;;16.00;100.00;102711.72;6216017;23;20011;-78
2023/10/04 10:41:27;;;;;;;11.13;4.55;;;;;;;15.93;100.00;102720.00;6215636;23;20393;-78
2023/10/04 10:44:19;;;;;;;10.13;3.85;;;;;;;16.06;100.00;102713.16;6216004;23;20000;-78
2023/10/04 10:46:54;;;;;;;;;;;;;;;16.17;100.00;102709.94;6124287;23;20037;-78
2023/10/04 10:49:41;;;;;;;10.25;4.75;;;;;;;16.27;100.00;102708.50;6124199;23;19975;-77
2023/10/04 10:52:20;;;;;;;12.80;4.60;;;;;;;16.38;100.00;102710.47;6122077;23;20010;-73
2023/10/04 10:54:45;;;;;;;13.40;4.22;;;;;;;16.32;100.00;102686.47;6123493;23;20010;-76
2023/10/04 10:57:12;;;;;;;15.20;4.43;;;;;;;16.64;100.00;102710.66;6124157;23;20016;-78
2023/10/04 10:59:53;;;;;;;11.25;3.88;;;;;;;16.73;100.00;102703.25;6124445;23;20010;-76
2023/10/04 11:02:20;;;;;;;12.57;4.15;;;;;;;16.87;100.00;102708.47;6123239;23;20426;-75
2023/10/04 11:04:45;;;;;;;14.23;4.32;;;;;;;16.86;100.00;102698.97;6125098;23;20010;-75
2023/10/04 11:07:11;;;;;;;14.90;4.32;;;;;;;16.40;98.11;102625.19;6124107;23;20114;-78
2023/10/04 11:09:39;;;;;;;13.20;4.20;;;;;;;16.59;100.00;102651.84;6123634;23;20033;-75
2023/10/04 11:12:10;;;;;;;13.18;4.60;;;;;;;16.89;100.00;102694.41;6123307;23;20017;-76
2023/10/04 11:14:38;;;;;;;13.95;3.97;;;;;;;16.85;98.02;102690.31;6123748;23;20125;-75
2023/10/04 11:17:04;;;;;;;12.23;4.28;;;;;;;16.83;95.81;102684.34;6123688;23;20093;-76
2023/10/04 11:19:34;;;;;;;11.27;4.15;;;;;;;16.39;92.84;102639.16;6123637;23;20029;-77
2023/10/04 11:22:02;;;;;;;10.60;3.50;;;;;;;16.52;96.34;102642.72;6123532;23;20313;-80
2023/10/04 11:24:31;;;;;;;12.02;4.00;;;;;;;16.45;96.04;102613.56;6204861;23;20011;-84
2023/10/04 11:27:09;;;;;;;13.35;4.88;;;;;;;16.89;93.71;102675.31;6215105;23;20015;-78
2023/10/04 11:29:36;;;;;;;12.30;4.75;;;;;;;16.83;94.50;102647.81;6215798;23;20319;-76
2023/10/04 11:32:02;;;;;;;10.02;4.05;;;;;;;16.96;94.86;102642.69;6215051;23;20056;-75
2023/10/04 11:34:37;;;;;;;11.85;4.57;;;;;;;17.00;92.70;102643.31;6213625;23;20079;-82
2023/10/04 11:37:04;;;;;;;14.27;4.78;;;;;;;17.15;91.23;102666.72;6215022;23;20004;-79
2023/10/04 11:39:54;;;;;;;11.15;4.40;;;;;;;17.04;93.38;102642.22;6215603;23;20092;-78
2023/10/04 11:42:30;;;;;;;12.32;4.32;;;;;;;17.25;92.56;102656.56;6215093;23;20012;-79
2023/10/04 11:44:55;;;;;;;11.35;4.95;;;;;;;17.40;90.82;102654.75;6215877;23;20011;-79
2023/10/04 11:47:38;;;;;;;15.05;5.35;;;;;;;17.48;89.99;102647.28;6215414;23;20000;-80